TE65 weather

Nrh Fire Department Heliport
North Richland Hills, Texas, United States

Public forecast

Using degrees Fahrenheit for public forecast. Weather courtesy of forecast.io.

METAR (pilot weather report)

Closest report is Fort Worth Meacham International Airport, 7.1 nm (13.1 km) WSW. Retrieved 2019/07/19 14:53 UTC (45 minutes ago):

KFTW 191453Z 19014G22KT 10SM CLR 29/20 A2996 RMK AO2 SLP135 T02890200 51007

TAF (pilot weather forecast)

Closest forecast is Fort Worth Meacham International Airport, 7.1 nm (13.1 km) WSW. Retrieved 2019/07/19 12:36 UTC (3 hours ago):

TAF KFTW 191135Z 1912/2012 17014KT P6SM FEW050